sensor_id;sensor_type;location;lat;lon;timestamp;pressure;altitude;pressure_sealevel;temperature;humidity
69836;BME280;57132;51.972;4.450;2022-09-03T00:00:26;101027.88;;;18.01;53.88
69836;BME280;57132;51.972;4.450;2022-09-03T00:05:46;101017.25;;;17.99;53.07
69836;BME280;57132;51.972;4.450;2022-09-03T00:13:37;101012.44;;;17.93;53.89
69836;BME280;57132;51.972;4.450;2022-09-03T00:16:08;101001.78;;;17.91;53.97
69836;BME280;57132;51.972;4.450;2022-09-03T00:18:42;101009.19;;;17.89;54.45
69836;BME280;57132;51.972;4.450;2022-09-03T00:21:16;101005.09;;;17.85;54.23
69836;BME280;57132;51.972;4.450;2022-09-03T00:23:45;101004.56;;;17.82;54.41
69836;BME280;57132;51.972;4.450;2022-09-03T00:28:50;100994.75;;;17.81;54.81
69836;BME280;57132;51.972;4.450;2022-09-03T00:31:22;100986.34;;;17.84;54.55
69836;BME280;57132;51.972;4.450;2022-09-03T00:33:55;100993.06;;;17.80;54.64
69836;BME280;57132;51.972;4.450;2022-09-03T00:36:30;100993.59;;;17.83;54.61
69836;BME280;57132;51.972;4.450;2022-09-03T00:38:57;101000.31;;;17.79;54.88
69836;BME280;57132;51.972;4.450;2022-09-03T00:41:35;100995.22;;;17.76;54.34
69836;BME280;57132;51.972;4.450;2022-09-03T01:00:15;100995.22;;;17.76;54.74
69836;BME280;57132;51.972;4.450;2022-09-03T01:03:04;101006.19;;;17.75;55.08
69836;BME280;57132;51.972;4.450;2022-09-03T01:16:45;101004.19;;;17.67;55.07
69836;BME280;57132;51.972;4.450;2022-09-03T01:19:24;101005.88;;;17.68;55.26
69836;BME280;57132;51.972;4.450;2022-09-03T01:24:47;101005.19;;;17.66;55.44
69836;BME280;57132;51.972;4.450;2022-09-03T01:30:11;101013.03;;;17.59;55.64
69836;BME280;57132;51.972;4.450;2022-09-03T01:32:44;101012.78;;;17.53;56.13
69836;BME280;57132;51.972;4.450;2022-09-03T01:46:00;101006.59;;;17.42;56.41
69836;BME280;57132;51.972;4.450;2022-09-03T01:51:10;101003.91;;;17.42;56.79
69836;BME280;57132;51.972;4.450;2022-09-03T01:56:48;101001.09;;;17.34;56.87
69836;BME280;57132;51.972;4.450;2022-09-03T01:59:21;100996.97;;;17.30;56.63
69836;BME280;57132;51.972;4.450;2022-09-03T02:04:34;101002.97;;;17.24;56.69
69836;BME280;57132;51.972;4.450;2022-09-03T02:07:00;100994.88;;;17.24;56.97
69836;BME280;57132;51.972;4.450;2022-09-03T02:09:27;101001.28;;;17.23;57.18
69836;BME280;57132;51.972;4.450;2022-09-03T02:11:57;100994.16;;;17.22;56.76
69836;BME280;57132;51.972;4.450;2022-09-03T02:14:25;100997.31;;;17.17;57.08
69836;BME280;57132;51.972;4.450;2022-09-03T02:16:51;100996.19;;;17.10;57.30
69836;BME280;57132;51.972;4.450;2022-09-03T02:19:18;100998.34;;;17.07;57.23
69836;BME280;57132;51.972;4.450;2022-09-03T02:21:50;100986.69;;;17.06;57.33
69836;BME280;57132;51.972;4.450;2022-09-03T02:24:16;100984.31;;;17.03;57.44
69836;BME280;57132;51.972;4.450;2022-09-03T02:26:42;100981.75;;;17.02;57.40
69836;BME280;57132;51.972;4.450;2022-09-03T02:29:08;100987.44;;;16.99;57.68
69836;BME280;57132;51.972;4.450;2022-09-03T02:31:33;100991.28;;;16.96;57.97
69836;BME280;57132;51.972;4.450;2022-09-03T02:33:59;100990.00;;;16.90;58.23
69836;BME280;57132;51.972;4.450;2022-09-03T02:36:31;100978.81;;;16.85;58.27
69836;BME280;57132;51.972;4.450;2022-09-03T02:38:57;100990.47;;;16.76;58.77
69836;BME280;57132;51.972;4.450;2022-09-03T02:41:23;100986.63;;;16.69;58.99
69836;BME280;57132;51.972;4.450;2022-09-03T02:43:59;100989.47;;;16.67;58.69
69836;BME280;57132;51.972;4.450;2022-09-03T02:46:32;100989.75;;;16.64;59.22
69836;BME280;57132;51.972;4.450;2022-09-03T02:48:59;100986.38;;;16.53;59.84
69836;BME280;57132;51.972;4.450;2022-09-03T02:51:24;100989.50;;;16.48;59.79
69836;BME280;57132;51.972;4.450;2022-09-03T02:53:49;100982.38;;;16.47;60.08
69836;BME280;57132;51.972;4.450;2022-09-03T02:56:15;100987.25;;;16.43;60.02
69836;BME280;57132;51.972;4.450;2022-09-03T02:58:40;100983.81;;;16.41;59.87
69836;BME280;57132;51.972;4.450;2022-09-03T03:01:05;100982.13;;;16.40;59.59
69836;BME280;57132;51.972;4.450;2022-09-03T03:03:31;100981.41;;;16.38;59.95
69836;BME280;57132;51.972;4.450;2022-09-03T03:05:59;100983.69;;;16.33;60.38
69836;BME280;57132;51.972;4.450;2022-09-03T03:08:26;100976.88;;;16.29;60.78
69836;BME280;57132;51.972;4.450;2022-09-03T03:10:55;100983.69;;;16.23;61.07
69836;BME280;57132;51.972;4.450;2022-09-03T03:13:27;100981.13;;;16.22;60.90
69836;BME280;57132;51.972;4.450;2022-09-03T03:15:57;100979.72;;;16.18;61.29
69836;BME280;57132;51.972;4.450;2022-09-03T03:18:22;100981.41;;;16.19;60.98
69836;BME280;57132;51.972;4.450;2022-09-03T03:20:48;100983.84;;;16.12;61.56
69836;BME280;57132;51.972;4.450;2022-09-03T03:23:13;100980.41;;;16.10;61.82
69836;BME280;57132;51.972;4.450;2022-09-03T03:25:39;100982.41;;;16.08;61.89
69836;BME280;57132;51.972;4.450;2022-09-03T03:28:05;100975.72;;;16.03;61.86
69836;BME280;57132;51.972;4.450;2022-09-03T03:30:31;100976.72;;;16.02;62.01
69836;BME280;57132;51.972;4.450;2022-09-03T03:32:57;100983.22;;;15.99;62.03
69836;BME280;57132;51.972;4.450;2022-09-03T03:35:23;100981.97;;;15.93;63.01
69836;BME280;57132;51.972;4.450;2022-09-03T03:37:49;100978.00;;;15.88;63.20
69836;BME280;57132;51.972;4.450;2022-09-03T03:40:15;100984.34;;;15.87;63.02
69836;BME280;57132;51.972;4.450;2022-09-03T03:42:41;100985.78;;;15.81;63.44
69836;BME280;57132;51.972;4.450;2022-09-03T03:45:07;100990.00;;;15.84;63.47
69836;BME280;57132;51.972;4.450;2022-09-03T03:47:34;100988.59;;;15.80;63.76
69836;BME280;57132;51.972;4.450;2022-09-03T03:50:00;100992.53;;;15.76;63.57
69836;BME280;57132;51.972;4.450;2022-09-03T03:52:26;100989.75;;;15.77;63.65
69836;BME280;57132;51.972;4.450;2022-09-03T03:54:52;100994.53;;;15.73;63.69
69836;BME280;57132;51.972;4.450;2022-09-03T03:57:18;100992.69;;;15.74;63.97
69836;BME280;57132;51.972;4.450;2022-09-03T03:59:45;100985.63;;;15.73;64.39
69836;BME280;57132;51.972;4.450;2022-09-03T04:02:11;100986.88;;;15.69;64.53
69836;BME280;57132;51.972;4.450;2022-09-03T04:04:37;100986.41;;;15.64;65.08
69836;BME280;57132;51.972;4.450;2022-09-03T04:07:02;100988.84;;;15.67;64.46
69836;BME280;57132;51.972;4.450;2022-09-03T04:09:28;100986.31;;;15.65;64.45
69836;BME280;57132;51.972;4.450;2022-09-03T04:11:53;100981.78;;;15.66;64.30
69836;BME280;57132;51.972;4.450;2022-09-03T04:14:20;100981.00;;;15.64;64.32
69836;BME280;57132;51.972;4.450;2022-09-03T04:16:46;100982.78;;;15.65;64.28
69836;BME280;57132;51.972;4.450;2022-09-03T04:19:12;100977.47;;;15.63;64.32
69836;BME280;57132;51.972;4.450;2022-09-03T04:21:38;100976.63;;;15.63;64.38
69836;BME280;57132;51.972;4.450;2022-09-03T04:24:04;100976.06;;;15.59;64.33
69836;BME280;57132;51.972;4.450;2022-09-03T04:26:31;100982.56;;;15.57;64.50
69836;BME280;57132;51.972;4.450;2022-09-03T04:29:06;100981.00;;;15.54;64.38
69836;BME280;57132;51.972;4.450;2022-09-03T04:31:33;100980.16;;;15.54;64.60
69836;BME280;57132;51.972;4.450;2022-09-03T04:33:59;100968.09;;;15.48;64.79
69836;BME280;57132;51.972;4.450;2022-09-03T04:36:27;100979.72;;;15.48;64.52
69836;BME280;57132;51.972;4.450;2022-09-03T04:38:54;100979.84;;;15.47;64.69
69836;BME280;57132;51.972;4.450;2022-09-03T04:41:25;100975.72;;;15.43;64.93
69836;BME280;57132;51.972;4.450;2022-09-03T04:43:52;100977.16;;;15.47;64.54
69836;BME280;57132;51.972;4.450;2022-09-03T04:46:19;100974.88;;;15.42;65.07
69836;BME280;57132;51.972;4.450;2022-09-03T04:48:49;100976.81;;;15.31;65.81
69836;BME280;57132;51.972;4.450;2022-09-03T04:51:18;100972.84;;;15.25;66.12
69836;BME280;57132;51.972;4.450;2022-09-03T04:53:45;100976.66;;;15.22;66.09
69836;BME280;57132;51.972;4.450;2022-09-03T04:56:22;100976.78;;;15.21;66.16
69836;BME280;57132;51.972;4.450;2022-09-03T04:58:53;100981.31;;;15.20;66.21
69836;BME280;57132;51.972;4.450;2022-09-03T05:01:21;100979.47;;;15.21;65.96
69836;BME280;57132;51.972;4.450;2022-09-03T05:03:47;100980.75;;;15.17;66.32
69836;BME280;57132;51.972;4.450;2022-09-03T05:06:13;100977.06;;;15.18;66.04
69836;BME280;57132;51.972;4.450;2022-09-03T05:08:41;100972.53;;;15.18;66.30
69836;BME280;57132;51.972;4.450;2022-09-03T05:11:07;100974.47;;;15.16;65.77
69836;BME280;57132;51.972;4.450;2022-09-03T05:13:33;100982.53;;;15.16;66.24
69836;BME280;57132;51.972;4.450;2022-09-03T05:16:00;100985.13;;;15.18;66.23
69836;BME280;57132;51.972;4.450;2022-09-03T05:18:26;100987.81;;;15.18;66.38
69836;BME280;57132;51.972;4.450;2022-09-03T05:20:59;100985.53;;;15.13;66.21
69836;BME280;57132;51.972;4.450;2022-09-03T05:23:26;100985.78;;;15.10;66.79
69836;BME280;57132;51.972;4.450;2022-09-03T05:25:58;100987.38;;;15.13;66.72
69836;BME280;57132;51.972;4.450;2022-09-03T05:28:25;100988.91;;;15.15;66.40
69836;BME280;57132;51.972;4.450;2022-09-03T05:31:04;100994.63;;;15.22;66.31
69836;BME280;57132;51.972;4.450;2022-09-03T05:33:35;100989.81;;;15.25;66.22
69836;BME280;57132;51.972;4.450;2022-09-03T05:36:04;100996.75;;;15.28;66.45
69836;BME280;57132;51.972;4.450;2022-09-03T05:38:30;100986.72;;;15.30;66.30
69836;BME280;57132;51.972;4.450;2022-09-03T05:41:05;100983.78;;;15.33;66.34
69836;BME280;57132;51.972;4.450;2022-09-03T05:43:31;100979.81;;;15.37;66.10
69836;BME280;57132;51.972;4.450;2022-09-03T05:45:58;100974.19;;;15.40;65.54
69836;BME280;57132;51.972;4.450;2022-09-03T05:48:25;100983.94;;;15.41;65.85
69836;BME280;57132;51.972;4.450;2022-09-03T05:51:00;100986.38;;;15.44;66.25
69836;BME280;57132;51.972;4.450;2022-09-03T05:53:27;100990.66;;;15.57;65.83
69836;BME280;57132;51.972;4.450;2022-09-03T05:55:57;100979.59;;;15.60;65.52
69836;BME280;57132;51.972;4.450;2022-09-03T05:58:23;100984.69;;;15.63;65.49
69836;BME280;57132;51.972;4.450;2022-09-03T06:00:50;100982.50;;;15.68;64.96
69836;BME280;57132;51.972;4.450;2022-09-03T06:03:15;100989.75;;;15.77;64.74
69836;BME280;57132;51.972;4.450;2022-09-03T06:05:48;100993.13;;;15.79;64.40
69836;BME280;57132;51.972;4.450;2022-09-03T06:08:14;100998.38;;;15.81;64.51
69836;BME280;57132;51.972;4.450;2022-09-03T06:10:39;100993.28;;;15.87;64.41
69836;BME280;57132;51.972;4.450;2022-09-03T06:13:04;100995.44;;;15.93;63.56
69836;BME280;57132;51.972;4.450;2022-09-03T06:15:30;100994.84;;;15.99;64.06
69836;BME280;57132;51.972;4.450;2022-09-03T06:17:55;100994.47;;;16.04;63.97
69836;BME280;57132;51.972;4.450;2022-09-03T06:20:21;101005.22;;;16.14;63.72
69836;BME280;57132;51.972;4.450;2022-09-03T06:22:49;101006.22;;;16.22;62.92
69836;BME280;57132;51.972;4.450;2022-09-03T06:25:17;101004.38;;;16.23;63.28
69836;BME280;57132;51.972;4.450;2022-09-03T06:27:43;101002.38;;;16.35;62.40
69836;BME280;57132;51.972;4.450;2022-09-03T06:30:08;100995.44;;;16.42;62.44
69836;BME280;57132;51.972;4.450;2022-09-03T06:32:42;101004.22;;;16.54;62.27
69836;BME280;57132;51.972;4.450;2022-09-03T06:35:08;101004.25;;;16.83;60.43
69836;BME280;57132;51.972;4.450;2022-09-03T06:37:38;101002.94;;;17.61;58.21
69836;BME280;57132;51.972;4.450;2022-09-03T06:40:04;101014.84;;;18.32;55.51
69836;BME280;57132;51.972;4.450;2022-09-03T06:42:30;101008.50;;;18.77;54.50
69836;BME280;57132;51.972;4.450;2022-09-03T06:44:56;101018.84;;;19.33;52.09
69836;BME280;57132;51.972;4.450;2022-09-03T06:47:22;101018.78;;;19.59;50.02
69836;BME280;57132;51.972;4.450;2022-09-03T06:49:47;101020.69;;;20.18;49.06
69836;BME280;57132;51.972;4.450;2022-09-03T06:52:12;101018.53;;;20.46;49.27
69836;BME280;57132;51.972;4.450;2022-09-03T06:54:37;101017.47;;;21.20;47.02
69836;BME280;57132;51.972;4.450;2022-09-03T06:57:04;101023.22;;;21.25;46.00
69836;BME280;57132;51.972;4.450;2022-09-03T06:59:30;101027.34;;;21.05;45.79
69836;BME280;57132;51.972;4.450;2022-09-03T07:01:56;101024.50;;;21.54;45.04
69836;BME280;57132;51.972;4.450;2022-09-03T07:04:22;101025.59;;;21.20;46.27
69836;BME280;57132;51.972;4.450;2022-09-03T07:06:49;101024.72;;;21.83;44.25
69836;BME280;57132;51.972;4.450;2022-09-03T07:09:14;101028.19;;;22.00;44.19
69836;BME280;57132;51.972;4.450;2022-09-03T07:11:42;101035.25;;;22.64;42.95
69836;BME280;57132;51.972;4.450;2022-09-03T07:14:15;101035.75;;;22.44;42.96
69836;BME280;57132;51.972;4.450;2022-09-03T07:16:41;101032.75;;;22.08;43.17
69836;BME280;57132;51.972;4.450;2022-09-03T07:19:07;101031.81;;;21.93;43.62
69836;BME280;57132;51.972;4.450;2022-09-03T07:21:34;101030.81;;;21.94;44.41
69836;BME280;57132;51.972;4.450;2022-09-03T07:24:05;101033.53;;;21.94;45.05
69836;BME280;57132;51.972;4.450;2022-09-03T07:26:33;101032.13;;;22.52;44.10
69836;BME280;57132;51.972;4.450;2022-09-03T07:28:59;101030.72;;;22.56;42.43
69836;BME280;57132;51.972;4.450;2022-09-03T07:31:26;101035.44;;;22.85;42.16
69836;BME280;57132;51.972;4.450;2022-09-03T07:33:59;101030.44;;;22.97;41.48
69836;BME280;57132;51.972;4.450;2022-09-03T07:36:27;101036.72;;;22.97;41.21
69836;BME280;57132;51.972;4.450;2022-09-03T07:38:55;101036.16;;;22.79;42.17
69836;BME280;57132;51.972;4.450;2022-09-03T07:41:21;101033.94;;;23.20;40.99
69836;BME280;57132;51.972;4.450;2022-09-03T07:43:47;101030.94;;;22.31;42.31
69836;BME280;57132;51.972;4.450;2022-09-03T07:46:15;101036.31;;;22.40;43.26
69836;BME280;57132;51.972;4.450;2022-09-03T07:48:47;101029.88;;;22.55;43.63
69836;BME280;57132;51.972;4.450;2022-09-03T07:51:15;101036.22;;;22.94;42.01
69836;BME280;57132;51.972;4.450;2022-09-03T07:53:42;101039.66;;;23.85;41.02
69836;BME280;57132;51.972;4.450;2022-09-03T07:56:09;101037.53;;;24.01;40.53
69836;BME280;57132;51.972;4.450;2022-09-03T07:58:36;101038.09;;;24.48;39.78
69836;BME280;57132;51.972;4.450;2022-09-03T08:01:07;101035.91;;;24.07;39.90
69836;BME280;57132;51.972;4.450;2022-09-03T08:03:34;101046.41;;;23.29;42.09
69836;BME280;57132;51.972;4.450;2022-09-03T08:06:05;101040.56;;;23.03;42.55
69836;BME280;57132;51.972;4.450;2022-09-03T08:08:31;101050.19;;;21.91;44.09
69836;BME280;57132;51.972;4.450;2022-09-03T08:11:10;101050.38;;;21.17;47.10
69836;BME280;57132;51.972;4.450;2022-09-03T08:13:47;101056.69;;;20.52;48.83
69836;BME280;57132;51.972;4.450;2022-09-03T08:16:15;101053.75;;;20.37;49.83
69836;BME280;57132;51.972;4.450;2022-09-03T08:18:41;101050.03;;;20.38;50.44
69836;BME280;57132;51.972;4.450;2022-09-03T08:21:12;101054.06;;;20.18;50.26
69836;BME280;57132;51.972;4.450;2022-09-03T08:23:41;101051.56;;;20.33;51.03
69836;BME280;57132;51.972;4.450;2022-09-03T08:26:06;101060.78;;;20.56;50.19
69836;BME280;57132;51.972;4.450;2022-09-03T08:28:35;101059.25;;;20.62;48.93
69836;BME280;57132;51.972;4.450;2022-09-03T08:33:34;101057.88;;;20.74;49.52
69836;BME280;57132;51.972;4.450;2022-09-03T08:36:10;101067.03;;;20.81;50.61
69836;BME280;57132;51.972;4.450;2022-09-03T08:38:40;101063.81;;;20.86;49.21
69836;BME280;57132;51.972;4.450;2022-09-03T08:41:16;101063.66;;;21.04;49.96
69836;BME280;57132;51.972;4.450;2022-09-03T08:46:24;101056.81;;;21.41;47.35
69836;BME280;57132;51.972;4.450;2022-09-03T08:48:53;101056.31;;;21.37;47.94
69836;BME280;57132;51.972;4.450;2022-09-03T08:51:22;101054.28;;;21.31;48.53
69836;BME280;57132;51.972;4.450;2022-09-03T08:53:53;101040.50;;;21.49;49.42
69836;BME280;57132;51.972;4.450;2022-09-03T08:56:26;101054.19;;;21.64;48.47
69836;BME280;57132;51.972;4.450;2022-09-03T08:58:53;101055.66;;;21.82;47.84
69836;BME280;57132;51.972;4.450;2022-09-03T09:01:51;101054.72;;;21.98;48.24
69836;BME280;57132;51.972;4.450;2022-09-03T09:04:35;101056.66;;;22.13;47.20
69836;BME280;57132;51.972;4.450;2022-09-03T09:07:16;101055.34;;;22.08;46.21
69836;BME280;57132;51.972;4.450;2022-09-03T09:13:12;101065.63;;;22.29;45.68
69836;BME280;57132;51.972;4.450;2022-09-03T09:21:21;101073.50;;;22.16;46.11
69836;BME280;57132;51.972;4.450;2022-09-03T09:23:50;101078.72;;;22.26;45.99
69836;BME280;57132;51.972;4.450;2022-09-03T09:26:17;101084.22;;;22.41;45.09
69836;BME280;57132;51.972;4.450;2022-09-03T09:28:57;101077.31;;;22.61;45.08
69836;BME280;57132;51.972;4.450;2022-09-03T09:31:24;101077.34;;;22.76;44.75
69836;BME280;57132;51.972;4.450;2022-09-03T09:33:50;101079.34;;;22.59;44.28
69836;BME280;57132;51.972;4.450;2022-09-03T09:36:17;101079.66;;;22.64;45.24
69836;BME280;57132;51.972;4.450;2022-09-03T09:38:44;101084.44;;;22.62;45.43
69836;BME280;57132;51.972;4.450;2022-09-03T09:41:16;101084.44;;;22.62;44.88
69836;BME280;57132;51.972;4.450;2022-09-03T09:43:43;101077.97;;;22.63;44.68
69836;BME280;57132;51.972;4.450;2022-09-03T09:46:14;101077.09;;;22.86;44.77
69836;BME280;57132;51.972;4.450;2022-09-03T09:48:53;101073.22;;;23.03;46.06
69836;BME280;57132;51.972;4.450;2022-09-03T09:51:22;101061.34;;;23.19;44.30
69836;BME280;57132;51.972;4.450;2022-09-03T09:54:02;101071.88;;;23.37;44.91
69836;BME280;57132;51.972;4.450;2022-09-03T09:56:27;101067.97;;;23.16;43.41
69836;BME280;57132;51.972;4.450;2022-09-03T09:59:06;101066.78;;;23.19;44.31
69836;BME280;57132;51.972;4.450;2022-09-03T10:01:33;101070.03;;;22.99;44.64
69836;BME280;57132;51.972;4.450;2022-09-03T10:04:09;101064.81;;;23.13;46.25
69836;BME280;57132;51.972;4.450;2022-09-03T10:06:35;101056.84;;;23.26;43.99
69836;BME280;57132;51.972;4.450;2022-09-03T10:09:21;101054.69;;;23.51;44.13
69836;BME280;57132;51.972;4.450;2022-09-03T10:14:43;101062.16;;;23.72;43.54
69836;BME280;57132;51.972;4.450;2022-09-03T10:22:38;101065.81;;;24.15;43.67
69836;BME280;57132;51.972;4.450;2022-09-03T10:25:07;101057.06;;;24.20;43.59
69836;BME280;57132;51.972;4.450;2022-09-03T10:27:34;101062.00;;;24.31;43.56
69836;BME280;57132;51.972;4.450;2022-09-03T10:30:02;101055.44;;;24.25;41.79
69836;BME280;57132;51.972;4.450;2022-09-03T10:32:46;101060.03;;;24.40;41.32
69836;BME280;57132;51.972;4.450;2022-09-03T10:35:30;101065.25;;;24.56;40.41
69836;BME280;57132;51.972;4.450;2022-09-03T10:38:09;101063.47;;;24.70;41.58
69836;BME280;57132;51.972;4.450;2022-09-03T10:40:43;101053.84;;;24.74;40.62
69836;BME280;57132;51.972;4.450;2022-09-03T10:43:21;101063.41;;;24.85;41.32
69836;BME280;57132;51.972;4.450;2022-09-03T10:46:10;101058.94;;;25.05;41.21
69836;BME280;57132;51.972;4.450;2022-09-03T10:52:06;101059.81;;;25.34;40.60
69836;BME280;57132;51.972;4.450;2022-09-03T10:57:50;101058.28;;;25.59;39.21
69836;BME280;57132;51.972;4.450;2022-09-03T11:00:19;101059.50;;;25.50;38.79
69836;BME280;57132;51.972;4.450;2022-09-03T11:03:10;101053.22;;;25.56;38.88
69836;BME280;57132;51.972;4.450;2022-09-03T11:06:04;101057.72;;;25.36;39.35
69836;BME280;57132;51.972;4.450;2022-09-03T11:11:18;101069.28;;;25.38;38.43
69836;BME280;57132;51.972;4.450;2022-09-03T11:13:49;101065.81;;;25.50;38.71
69836;BME280;57132;51.972;4.450;2022-09-03T11:16:25;101064.63;;;25.32;37.94
69836;BME280;57132;51.972;4.450;2022-09-03T11:19:15;101071.44;;;25.42;39.13
69836;BME280;57132;51.972;4.450;2022-09-03T11:21:40;101070.72;;;25.34;39.42
69836;BME280;57132;51.972;4.450;2022-09-03T11:24:22;101065.53;;;25.39;39.09
69836;BME280;57132;51.972;4.450;2022-09-03T11:27:17;101065.81;;;25.50;38.95
69836;BME280;57132;51.972;4.450;2022-09-03T11:30:05;101067.13;;;25.61;38.15
69836;BME280;57132;51.972;4.450;2022-09-03T11:35:28;101067.75;;;26.72;37.15
69836;BME280;57132;51.972;4.450;2022-09-03T11:38:03;101062.47;;;26.84;36.09
69836;BME280;57132;51.972;4.450;2022-09-03T11:40:36;101060.38;;;26.53;35.74
69836;BME280;57132;51.972;4.450;2022-09-03T11:43:12;101063.94;;;26.60;35.82
69836;BME280;57132;51.972;4.450;2022-09-03T11:45:38;101060.38;;;26.53;36.36
69836;BME280;57132;51.972;4.450;2022-09-03T11:48:33;101058.50;;;26.73;35.29
69836;BME280;57132;51.972;4.450;2022-09-03T11:51:00;101055.72;;;26.60;35.40
69836;BME280;57132;51.972;4.450;2022-09-03T11:53:33;101059.94;;;26.50;36.08
69836;BME280;57132;51.972;4.450;2022-09-03T11:56:19;101058.59;;;26.32;37.19
69836;BME280;57132;51.972;4.450;2022-09-03T11:58:45;101046.34;;;26.15;35.51
69836;BME280;57132;51.972;4.450;2022-09-03T12:01:15;101048.50;;;26.26;37.11
69836;BME280;57132;51.972;4.450;2022-09-03T12:11:25;101057.25;;;26.08;37.08
69836;BME280;57132;51.972;4.450;2022-09-03T12:14:04;101046.78;;;26.18;35.56
69836;BME280;57132;51.972;4.450;2022-09-03T12:19:26;101045.94;;;26.18;36.02
69836;BME280;57132;51.972;4.450;2022-09-03T12:21:55;101051.44;;;26.31;35.99
69836;BME280;57132;51.972;4.450;2022-09-03T12:24:20;101040.56;;;25.83;36.45
69836;BME280;57132;51.972;4.450;2022-09-03T12:26:47;101050.38;;;26.19;37.73
69836;BME280;57132;51.972;4.450;2022-09-03T12:29:27;101038.41;;;26.33;36.86
69836;BME280;57132;51.972;4.450;2022-09-03T12:31:53;101042.41;;;26.37;37.69
69836;BME280;57132;51.972;4.450;2022-09-03T12:34:21;101033.34;;;26.37;37.03
69836;BME280;57132;51.972;4.450;2022-09-03T12:36:52;101035.03;;;26.31;37.36
69836;BME280;57132;51.972;4.450;2022-09-03T12:42:04;101031.44;;;26.17;36.54
69836;BME280;57132;51.972;4.450;2022-09-03T12:44:37;101025.97;;;26.31;37.11
69836;BME280;57132;51.972;4.450;2022-09-03T12:47:14;101030.75;;;26.02;36.32
69836;BME280;57132;51.972;4.450;2022-09-03T12:49:43;101034.13;;;26.11;37.38
69836;BME280;57132;51.972;4.450;2022-09-03T12:52:38;101035.25;;;26.43;37.40
69836;BME280;57132;51.972;4.450;2022-09-03T13:00:23;101030.28;;;26.73;34.25
69836;BME280;57132;51.972;4.450;2022-09-03T13:02:57;101043.50;;;27.36;32.98
69836;BME280;57132;51.972;4.450;2022-09-03T13:05:31;101041.34;;;28.16;32.62
69836;BME280;57132;51.972;4.450;2022-09-03T13:07:58;101033.72;;;28.56;32.39
69836;BME280;57132;51.972;4.450;2022-09-03T13:10:28;101033.41;;;28.33;33.03
69836;BME280;57132;51.972;4.450;2022-09-03T13:13:02;101030.09;;;27.86;34.77
69836;BME280;57132;51.972;4.450;2022-09-03T13:15:28;101027.84;;;27.56;34.09
69836;BME280;57132;51.972;4.450;2022-09-03T13:18:14;101033.16;;;27.38;34.25
69836;BME280;57132;51.972;4.450;2022-09-03T13:21:05;101022.03;;;26.86;34.74
69836;BME280;57132;51.972;4.450;2022-09-03T13:26:27;101031.53;;;26.57;34.92
69836;BME280;57132;51.972;4.450;2022-09-03T13:29:01;101026.66;;;26.59;35.18
69836;BME280;57132;51.972;4.450;2022-09-03T13:31:36;101027.94;;;26.77;35.58
69836;BME280;57132;51.972;4.450;2022-09-03T13:34:08;101031.31;;;26.72;36.38
69836;BME280;57132;51.972;4.450;2022-09-03T13:36:48;101024.13;;;26.64;35.38
69836;BME280;57132;51.972;4.450;2022-09-03T13:39:23;101031.28;;;26.52;35.29
69836;BME280;57132;51.972;4.450;2022-09-03T13:41:54;101031.28;;;26.52;35.68
69836;BME280;57132;51.972;4.450;2022-09-03T13:44:33;101017.19;;;26.55;35.62
69836;BME280;57132;51.972;4.450;2022-09-03T13:47:11;101023.72;;;26.61;35.91
69836;BME280;57132;51.972;4.450;2022-09-03T13:49:56;101014.88;;;26.52;36.41
69836;BME280;57132;51.972;4.450;2022-09-03T13:52:52;101013.19;;;26.51;35.47
69836;BME280;57132;51.972;4.450;2022-09-03T13:55:40;101022.88;;;26.54;36.04
69836;BME280;57132;51.972;4.450;2022-09-03T13:58:23;101017.59;;;26.52;35.46
69836;BME280;57132;51.972;4.450;2022-09-03T14:03:47;101020.31;;;26.39;34.86
69836;BME280;57132;51.972;4.450;2022-09-03T14:11:53;101014.03;;;26.58;35.47
69836;BME280;57132;51.972;4.450;2022-09-03T14:17:38;101017.41;;;26.60;34.33
69836;BME280;57132;51.972;4.450;2022-09-03T14:20:11;101024.56;;;26.55;35.25
69836;BME280;57132;51.972;4.450;2022-09-03T14:25:25;101023.72;;;26.54;36.46
69836;BME280;57132;51.972;4.450;2022-09-03T14:27:53;101023.09;;;26.65;36.16
69836;BME280;57132;51.972;4.450;2022-09-03T14:30:24;101014.06;;;26.65;37.73
69836;BME280;57132;51.972;4.450;2022-09-03T14:38:50;101018.03;;;26.56;35.74
69836;BME280;57132;51.972;4.450;2022-09-03T14:47:26;101017.59;;;26.52;35.47
69836;BME280;57132;51.972;4.450;2022-09-03T14:52:58;101025.16;;;26.43;34.79
69836;BME280;57132;51.972;4.450;2022-09-03T14:58:26;101020.06;;;26.40;34.63
69836;BME280;57132;51.972;4.450;2022-09-03T15:01:17;101007.25;;;26.34;34.82
69836;BME280;57132;51.972;4.450;2022-09-03T15:09:37;101018.63;;;26.38;35.11
69836;BME280;57132;51.972;4.450;2022-09-03T15:12:15;101021.53;;;26.36;34.83
69836;BME280;57132;51.972;4.450;2022-09-03T15:14:54;101014.41;;;26.42;35.01
69836;BME280;57132;51.972;4.450;2022-09-03T15:34:26;101022.78;;;26.20;36.66
69836;BME280;57132;51.972;4.450;2022-09-03T15:36:21;101026.34;;;26.14;36.40
69836;BME280;57132;51.972;4.450;2022-09-03T15:38:57;101022.78;;;26.14;37.41
69836;BME280;57132;51.972;4.450;2022-09-03T15:41:39;101026.97;;;26.10;36.13
69836;BME280;57132;51.972;4.450;2022-09-03T15:44:11;101022.72;;;25.94;37.16
69836;BME280;57132;51.972;4.450;2022-09-03T15:49:43;101015.94;;;25.83;37.12
69836;BME280;57132;51.972;4.450;2022-09-03T15:55:10;101024.38;;;25.82;37.03
69836;BME280;57132;51.972;4.450;2022-09-03T15:57:53;101017.16;;;25.74;37.50
69836;BME280;57132;51.972;4.450;2022-09-03T16:00:29;101015.88;;;25.70;38.66
69836;BME280;57132;51.972;4.450;2022-09-03T16:03:07;101017.91;;;25.61;37.72
69836;BME280;57132;51.972;4.450;2022-09-03T16:05:43;101022.72;;;25.52;38.92
69836;BME280;57132;51.972;4.450;2022-09-03T16:08:52;101032.13;;;25.43;37.73